sensor_id;sensor_type;location;lat;lon;timestamp;pressure;altitude;pressure_sealevel;temperature;humidity
50790;BME280;37287;47.554;7.844;2023-04-19T00:01:41;98169.56;;;8.65;91.79
50790;BME280;37287;47.554;7.844;2023-04-19T00:04:07;98178.88;;;8.67;91.28
50790;BME280;37287;47.554;7.844;2023-04-19T00:06:36;98181.06;;;8.62;91.44
50790;BME280;37287;47.554;7.844;2023-04-19T00:09:03;98174.19;;;8.64;91.12
50790;BME280;37287;47.554;7.844;2023-04-19T00:11:29;98171.34;;;8.57;91.68
50790;BME280;37287;47.554;7.844;2023-04-19T00:13:58;98174.03;;;8.57;91.94
50790;BME280;37287;47.554;7.844;2023-04-19T00:16:25;98174.72;;;8.54;92.29
50790;BME280;37287;47.554;7.844;2023-04-19T00:18:51;98176.28;;;8.55;92.07
50790;BME280;37287;47.554;7.844;2023-04-19T00:21:20;98171.97;;;8.50;92.43
50790;BME280;37287;47.554;7.844;2023-04-19T00:23:48;98170.66;;;8.44;92.68
50790;BME280;37287;47.554;7.844;2023-04-19T00:26:15;98177.53;;;8.41;93.18
50790;BME280;37287;47.554;7.844;2023-04-19T00:28:41;98171.72;;;8.39;93.20
50790;BME280;37287;47.554;7.844;2023-04-19T00:31:10;98177.03;;;8.36;93.47
50790;BME280;37287;47.554;7.844;2023-04-19T00:33:37;98177.66;;;8.29;93.48
50790;BME280;37287;47.554;7.844;2023-04-19T00:36:04;98177.31;;;8.31;93.56
50790;BME280;37287;47.554;7.844;2023-04-19T00:38:30;98172.97;;;8.26;94.42
50790;BME280;37287;47.554;7.844;2023-04-19T00:40:57;98177.94;;;8.24;94.93
50790;BME280;37287;47.554;7.844;2023-04-19T00:43:26;98174.81;;;8.22;94.92
50790;BME280;37287;47.554;7.844;2023-04-19T00:45:52;98180.91;;;8.19;94.80
50790;BME280;37287;47.554;7.844;2023-04-19T00:48:19;98187.78;;;8.16;94.72
50790;BME280;37287;47.554;7.844;2023-04-19T00:50:47;98175.06;;;8.17;96.39
50790;BME280;37287;47.554;7.844;2023-04-19T00:53:15;98177.50;;;8.22;95.56
50790;BME280;37287;47.554;7.844;2023-04-19T00:55:41;98170.28;;;8.26;94.95
50790;BME280;37287;47.554;7.844;2023-04-19T00:58:08;98167.63;;;8.30;94.53
50790;BME280;37287;47.554;7.844;2023-04-19T01:00:36;98168.22;;;8.39;94.81
50790;BME280;37287;47.554;7.844;2023-04-19T01:03:04;98167.88;;;8.40;94.08
50790;BME280;37287;47.554;7.844;2023-04-19T01:05:33;98173.69;;;8.42;95.01
50790;BME280;37287;47.554;7.844;2023-04-19T01:08:00;98167.63;;;8.46;94.41
50790;BME280;37287;47.554;7.844;2023-04-19T01:10:27;98170.34;;;8.46;94.49
50790;BME280;37287;47.554;7.844;2023-04-19T01:12:55;98166.41;;;8.43;94.73
50790;BME280;37287;47.554;7.844;2023-04-19T01:15:22;98166.94;;;8.49;94.28
50790;BME280;37287;47.554;7.844;2023-04-19T01:17:48;98167.34;;;8.51;94.27
50790;BME280;37287;47.554;7.844;2023-04-19T01:20:19;98162.81;;;8.55;94.56
50790;BME280;37287;47.554;7.844;2023-04-19T01:22:46;98160.19;;;8.58;94.60
50790;BME280;37287;47.554;7.844;2023-04-19T01:25:12;98159.88;;;8.64;93.95
50790;BME280;37287;47.554;7.844;2023-04-19T01:27:41;98154.06;;;8.62;94.10
50790;BME280;37287;47.554;7.844;2023-04-19T01:30:09;98155.66;;;8.63;93.98
50790;BME280;37287;47.554;7.844;2023-04-19T01:32:36;98153.72;;;8.63;94.05
50790;BME280;37287;47.554;7.844;2023-04-19T01:35:03;98152.59;;;8.64;94.19
50790;BME280;37287;47.554;7.844;2023-04-19T01:37:30;98150.31;;;8.66;94.04
50790;BME280;37287;47.554;7.844;2023-04-19T01:40:00;98151.88;;;8.67;94.64
50790;BME280;37287;47.554;7.844;2023-04-19T01:42:28;98145.34;;;8.68;94.45
50790;BME280;37287;47.554;7.844;2023-04-19T01:44:57;98149.59;;;8.69;94.28
50790;BME280;37287;47.554;7.844;2023-04-19T01:47:23;98147.69;;;8.70;94.45
50790;BME280;37287;47.554;7.844;2023-04-19T01:49:52;98139.63;;;8.73;94.02
50790;BME280;37287;47.554;7.844;2023-04-19T01:52:19;98143.50;;;8.72;93.98
50790;BME280;37287;47.554;7.844;2023-04-19T01:54:45;98145.03;;;8.73;93.76
50790;BME280;37287;47.554;7.844;2023-04-19T01:57:18;98138.09;;;8.72;94.02
50790;BME280;37287;47.554;7.844;2023-04-19T01:59:45;98139.22;;;8.71;94.41
50790;BME280;37287;47.554;7.844;2023-04-19T02:02:14;98134.97;;;8.70;94.19
50790;BME280;37287;47.554;7.844;2023-04-19T02:04:47;98128.78;;;8.70;94.58
50790;BME280;37287;47.554;7.844;2023-04-19T02:07:14;98128.44;;;8.71;94.31
50790;BME280;37287;47.554;7.844;2023-04-19T02:09:40;98134.19;;;8.70;94.75
50790;BME280;37287;47.554;7.844;2023-04-19T02:12:08;98131.13;;;8.71;94.56
50790;BME280;37287;47.554;7.844;2023-04-19T02:14:34;98129.56;;;8.70;94.13
50790;BME280;37287;47.554;7.844;2023-04-19T02:17:01;98129.56;;;8.70;94.32
50790;BME280;37287;47.554;7.844;2023-04-19T02:19:30;98131.53;;;8.73;94.50
50790;BME280;37287;47.554;7.844;2023-04-19T02:21:56;98128.84;;;8.73;94.47
50790;BME280;37287;47.554;7.844;2023-04-19T02:24:23;98130.34;;;8.71;94.98
50790;BME280;37287;47.554;7.844;2023-04-19T02:26:52;98127.22;;;8.69;95.14
50790;BME280;37287;47.554;7.844;2023-04-19T02:29:18;98131.06;;;8.68;94.92
50790;BME280;37287;47.554;7.844;2023-04-19T02:31:45;98127.13;;;8.65;94.90
50790;BME280;37287;47.554;7.844;2023-04-19T02:34:12;98123.66;;;8.65;94.80
50790;BME280;37287;47.554;7.844;2023-04-19T02:36:38;98124.44;;;8.65;95.09
50790;BME280;37287;47.554;7.844;2023-04-19T02:39:05;98122.09;;;8.64;95.22
50790;BME280;37287;47.554;7.844;2023-04-19T02:41:34;98120.56;;;8.63;95.65
50790;BME280;37287;47.554;7.844;2023-04-19T02:44:01;98120.91;;;8.61;95.71
50790;BME280;37287;47.554;7.844;2023-04-19T02:46:27;98117.84;;;8.63;95.35
50790;BME280;37287;47.554;7.844;2023-04-19T02:48:54;98120.91;;;8.61;95.58
50790;BME280;37287;47.554;7.844;2023-04-19T02:51:23;98110.81;;;8.58;96.31
50790;BME280;37287;47.554;7.844;2023-04-19T02:53:52;98113.94;;;8.60;96.11
50790;BME280;37287;47.554;7.844;2023-04-19T02:56:20;98111.59;;;8.58;96.16
50790;BME280;37287;47.554;7.844;2023-04-19T02:58:47;98111.59;;;8.58;96.24
50790;BME280;37287;47.554;7.844;2023-04-19T03:01:13;98114.31;;;8.58;96.22
50790;BME280;37287;47.554;7.844;2023-04-19T03:03:44;98113.16;;;8.59;96.10
50790;BME280;37287;47.554;7.844;2023-04-19T03:06:11;98112.81;;;8.61;95.82
50790;BME280;37287;47.554;7.844;2023-04-19T03:08:37;98119.41;;;8.64;96.14
50790;BME280;37287;47.554;7.844;2023-04-19T03:11:04;98112.09;;;8.64;95.96
50790;BME280;37287;47.554;7.844;2023-04-19T03:13:30;98116.78;;;8.67;95.93
50790;BME280;37287;47.554;7.844;2023-04-19T03:15:59;98113.38;;;8.70;95.36
50790;BME280;37287;47.554;7.844;2023-04-19T03:18:30;98114.50;;;8.69;95.61
50790;BME280;37287;47.554;7.844;2023-04-19T03:20:57;98117.19;;;8.69;95.59
50790;BME280;37287;47.554;7.844;2023-04-19T03:23:24;98111.78;;;8.69;95.81
50790;BME280;37287;47.554;7.844;2023-04-19T03:25:52;98117.63;;;8.71;95.68
50790;BME280;37287;47.554;7.844;2023-04-19T03:28:18;98120.34;;;8.71;96.02
50790;BME280;37287;47.554;7.844;2023-04-19T03:30:45;98108.41;;;8.72;95.74
50790;BME280;37287;47.554;7.844;2023-04-19T03:33:13;98115.72;;;8.72;95.88
50790;BME280;37287;47.554;7.844;2023-04-19T03:35:40;98119.22;;;8.72;96.03
50790;BME280;37287;47.554;7.844;2023-04-19T03:38:06;98117.63;;;8.71;96.34
50790;BME280;37287;47.554;7.844;2023-04-19T03:40:36;98117.63;;;8.71;96.50
50790;BME280;37287;47.554;7.844;2023-04-19T03:43:03;98112.59;;;8.70;96.38
50790;BME280;37287;47.554;7.844;2023-04-19T03:45:30;98107.97;;;8.70;96.76
50790;BME280;37287;47.554;7.844;2023-04-19T03:47:57;98102.56;;;8.70;96.41
50790;BME280;37287;47.554;7.844;2023-04-19T03:50:26;98100.63;;;8.71;96.55
50790;BME280;37287;47.554;7.844;2023-04-19T03:52:53;98094.09;;;8.72;96.47
50790;BME280;37287;47.554;7.844;2023-04-19T03:55:20;98094.91;;;8.72;96.65
50790;BME280;37287;47.554;7.844;2023-04-19T03:57:47;98096.44;;;8.73;96.98
50790;BME280;37287;47.554;7.844;2023-04-19T04:00:14;98100.72;;;8.74;97.14
50790;BME280;37287;47.554;7.844;2023-04-19T04:02:42;98093.75;;;8.73;97.52
50790;BME280;37287;47.554;7.844;2023-04-19T04:05:09;98091.28;;;8.65;97.75
50790;BME280;37287;47.554;7.844;2023-04-19T04:07:36;98092.72;;;8.58;98.33
50790;BME280;37287;47.554;7.844;2023-04-19T04:10:05;98091.50;;;8.56;99.22
50790;BME280;37287;47.554;7.844;2023-04-19T04:12:32;98096.06;;;8.52;98.46
50790;BME280;37287;47.554;7.844;2023-04-19T04:15:00;98105.91;;;8.44;99.01
50790;BME280;37287;47.554;7.844;2023-04-19T04:17:28;98099.56;;;8.36;99.69
50790;BME280;37287;47.554;7.844;2023-04-19T04:19:55;98105.91;;;8.24;100.00
50790;BME280;37287;47.554;7.844;2023-04-19T04:22:22;98101.53;;;8.20;100.00
50790;BME280;37287;47.554;7.844;2023-04-19T04:24:50;98108.97;;;8.07;100.00
50790;BME280;37287;47.554;7.844;2023-04-19T04:27:19;98100.69;;;7.96;100.00
50790;BME280;37287;47.554;7.844;2023-04-19T04:29:46;98103.78;;;7.98;100.00
50790;BME280;37287;47.554;7.844;2023-04-19T04:32:16;98105.38;;;7.99;100.00
50790;BME280;37287;47.554;7.844;2023-04-19T04:34:50;98107.25;;;7.99;100.00
50790;BME280;37287;47.554;7.844;2023-04-19T04:37:17;98104.91;;;7.97;100.00
50790;BME280;37287;47.554;7.844;2023-04-19T04:39:45;98111.03;;;7.94;100.00
50790;BME280;37287;47.554;7.844;2023-04-19T04:42:12;98111.47;;;7.96;100.00
50790;BME280;37287;47.554;7.844;2023-04-19T04:44:40;98110.97;;;7.90;100.00
50790;BME280;37287;47.554;7.844;2023-04-19T04:47:13;98106.91;;;7.81;100.00
50790;BME280;37287;47.554;7.844;2023-04-19T04:49:40;98111.41;;;7.77;100.00
50790;BME280;37287;47.554;7.844;2023-04-19T04:52:06;98113.00;;;7.78;100.00
50790;BME280;37287;47.554;7.844;2023-04-19T04:54:34;98120.22;;;7.73;100.00
50790;BME280;37287;47.554;7.844;2023-04-19T04:57:00;98114.88;;;7.77;100.00
50790;BME280;37287;47.554;7.844;2023-04-19T04:59:28;98111.56;;;7.84;100.00
50790;BME280;37287;47.554;7.844;2023-04-19T05:01:56;98113.75;;;7.78;100.00
50790;BME280;37287;47.554;7.844;2023-04-19T05:04:23;98109.94;;;7.79;100.00
50790;BME280;37287;47.554;7.844;2023-04-19T05:06:49;98115.03;;;7.84;100.00
50790;BME280;37287;47.554;7.844;2023-04-19T05:09:18;98108.44;;;7.82;100.00
50790;BME280;37287;47.554;7.844;2023-04-19T05:11:45;98113.06;;;7.81;100.00
50790;BME280;37287;47.554;7.844;2023-04-19T05:14:11;98114.63;;;7.82;100.00
50790;BME280;37287;47.554;7.844;2023-04-19T05:16:42;98113.31;;;7.76;100.00
50790;BME280;37287;47.554;7.844;2023-04-19T05:19:09;98116.09;;;7.80;100.00
50790;BME280;37287;47.554;7.844;2023-04-19T05:21:36;98118.53;;;7.85;100.00
50790;BME280;37287;47.554;7.844;2023-04-19T05:24:03;98112.78;;;7.86;100.00
50790;BME280;37287;47.554;7.844;2023-04-19T05:26:30;98118.97;;;7.87;100.00
50790;BME280;37287;47.554;7.844;2023-04-19T05:28:57;98117.84;;;7.88;100.00
50790;BME280;37287;47.554;7.844;2023-04-19T05:31:28;98119.81;;;7.91;100.00
50790;BME280;37287;47.554;7.844;2023-04-19T05:33:55;98116.41;;;7.94;100.00
50790;BME280;37287;47.554;7.844;2023-04-19T05:36:21;98116.41;;;7.94;100.00
50790;BME280;37287;47.554;7.844;2023-04-19T05:38:50;98122.66;;;7.98;100.00
50790;BME280;37287;47.554;7.844;2023-04-19T05:41:19;98122.66;;;7.98;100.00
50790;BME280;37287;47.554;7.844;2023-04-19T05:43:49;98130.75;;;7.98;100.00
50790;BME280;37287;47.554;7.844;2023-04-19T05:46:17;98127.28;;;7.98;100.00
50790;BME280;37287;47.554;7.844;2023-04-19T05:48:45;98123.38;;;7.95;100.00
50790;BME280;37287;47.554;7.844;2023-04-19T05:51:12;98121.44;;;7.96;100.00
50790;BME280;37287;47.554;7.844;2023-04-19T05:53:41;98130.41;;;8.00;100.00
50790;BME280;37287;47.554;7.844;2023-04-19T05:56:07;98125.88;;;8.04;100.00
50790;BME280;37287;47.554;7.844;2023-04-19T05:58:34;98130.91;;;8.05;100.00
50790;BME280;37287;47.554;7.844;2023-04-19T06:01:08;98130.41;;;8.00;100.00
50790;BME280;37287;47.554;7.844;2023-04-19T06:03:34;98128.94;;;8.02;100.00
50790;BME280;37287;47.554;7.844;2023-04-19T06:06:01;98131.97;;;8.01;100.00
50790;BME280;37287;47.554;7.844;2023-04-19T06:08:28;98128.56;;;8.04;100.00
50790;BME280;37287;47.554;7.844;2023-04-19T06:10:56;98126.72;;;8.08;100.00
50790;BME280;37287;47.554;7.844;2023-04-19T06:13:38;98128.38;;;8.13;100.00
50790;BME280;37287;47.554;7.844;2023-04-19T06:16:09;98134.19;;;8.15;100.00
50790;BME280;37287;47.554;7.844;2023-04-19T06:18:36;98133.41;;;8.14;100.00
50790;BME280;37287;47.554;7.844;2023-04-19T06:21:02;98136.47;;;8.13;100.00
50790;BME280;37287;47.554;7.844;2023-04-19T06:23:29;98134.91;;;8.12;100.00
50790;BME280;37287;47.554;7.844;2023-04-19T06:25:57;98138.38;;;8.12;100.00
50790;BME280;37287;47.554;7.844;2023-04-19T06:28:24;98142.28;;;8.15;100.00
50790;BME280;37287;47.554;7.844;2023-04-19T06:30:52;98131.94;;;8.17;100.00
50790;BME280;37287;47.554;7.844;2023-04-19T06:33:19;98140.47;;;8.19;100.00
50790;BME280;37287;47.554;7.844;2023-04-19T06:35:47;98140.88;;;8.21;100.00
50790;BME280;37287;47.554;7.844;2023-04-19T06:38:23;98150.53;;;8.22;100.00
50790;BME280;37287;47.554;7.844;2023-04-19T06:40:49;98141.72;;;8.25;100.00
50790;BME280;37287;47.554;7.844;2023-04-19T06:43:16;98136.69;;;8.23;100.00
50790;BME280;37287;47.554;7.844;2023-04-19T06:45:44;98142.50;;;8.25;100.00
50790;BME280;37287;47.554;7.844;2023-04-19T06:48:11;98146.06;;;8.30;100.00
50790;BME280;37287;47.554;7.844;2023-04-19T06:50:38;98139.44;;;8.27;100.00
50790;BME280;37287;47.554;7.844;2023-04-19T06:53:05;98143.66;;;8.24;100.00
50790;BME280;37287;47.554;7.844;2023-04-19T06:55:31;98141.72;;;8.25;100.00
50790;BME280;37287;47.554;7.844;2023-04-19T06:57:58;98142.16;;;8.27;100.00
50790;BME280;37287;47.554;7.844;2023-04-19T07:00:26;98145.78;;;8.35;100.00
50790;BME280;37287;47.554;7.844;2023-04-19T07:02:53;98146.56;;;8.35;100.00
50790;BME280;37287;47.554;7.844;2023-04-19T07:05:19;98143.88;;;8.35;100.00
50790;BME280;37287;47.554;7.844;2023-04-19T07:07:49;98146.66;;;8.39;100.00
50790;BME280;37287;47.554;7.844;2023-04-19T07:10:15;98145.16;;;8.41;100.00
50790;BME280;37287;47.554;7.844;2023-04-19T07:12:44;98149.88;;;8.45;100.00
50790;BME280;37287;47.554;7.844;2023-04-19T07:15:11;98147.59;;;8.47;100.00
50790;BME280;37287;47.554;7.844;2023-04-19T07:17:37;98147.75;;;8.54;100.00
50790;BME280;37287;47.554;7.844;2023-04-19T07:20:04;98147.06;;;8.57;100.00
50790;BME280;37287;47.554;7.844;2023-04-19T07:22:36;98147.06;;;8.57;100.00
50790;BME280;37287;47.554;7.844;2023-04-19T07:25:02;98145.63;;;8.63;100.00
50790;BME280;37287;47.554;7.844;2023-04-19T07:27:29;98139.59;;;8.70;100.00
50790;BME280;37287;47.554;7.844;2023-04-19T07:29:58;98132.75;;;8.76;100.00
50790;BME280;37287;47.554;7.844;2023-04-19T07:32:24;98139.38;;;8.78;100.00
50790;BME280;37287;47.554;7.844;2023-04-19T07:34:51;98139.78;;;8.81;100.00
50790;BME280;37287;47.554;7.844;2023-04-19T07:37:20;98135.22;;;8.85;100.00
50790;BME280;37287;47.554;7.844;2023-04-19T07:39:46;98143.41;;;8.88;100.00
50790;BME280;37287;47.554;7.844;2023-04-19T07:42:13;98142.59;;;8.88;100.00
50790;BME280;37287;47.554;7.844;2023-04-19T07:44:43;98143.47;;;8.92;100.00
50790;BME280;37287;47.554;7.844;2023-04-19T07:47:10;98140.47;;;8.97;100.00
50790;BME280;37287;47.554;7.844;2023-04-19T07:49:36;98142.03;;;8.98;100.00
50790;BME280;37287;47.554;7.844;2023-04-19T07:52:06;98143.75;;;9.06;100.00
50790;BME280;37287;47.554;7.844;2023-04-19T07:54:33;98139.22;;;9.14;100.00
50790;BME280;37287;47.554;7.844;2023-04-19T07:57:00;98139.72;;;9.20;100.00
50790;BME280;37287;47.554;7.844;2023-04-19T07:59:29;98139.06;;;9.26;100.00
50790;BME280;37287;47.554;7.844;2023-04-19T08:01:58;98144.88;;;9.28;100.00
50790;BME280;37287;47.554;7.844;2023-04-19T08:04:27;98145.72;;;9.33;100.00
50790;BME280;37287;47.554;7.844;2023-04-19T08:06:58;98138.75;;;9.32;100.00
50790;BME280;37287;47.554;7.844;2023-04-19T08:09:24;98132.94;;;9.29;100.00
50790;BME280;37287;47.554;7.844;2023-04-19T08:11:51;98137.25;;;9.34;100.00
50790;BME280;37287;47.554;7.844;2023-04-19T08:14:18;98138.41;;;9.33;100.00
50790;BME280;37287;47.554;7.844;2023-04-19T08:17:03;98139.38;;;9.44;100.00
50790;BME280;37287;47.554;7.844;2023-04-19T08:19:48;98133.16;;;9.44;100.00
50790;BME280;37287;47.554;7.844;2023-04-19T08:22:18;98131.66;;;9.46;100.00
50790;BME280;37287;47.554;7.844;2023-04-19T08:24:49;98134.06;;;9.52;100.00
50790;BME280;37287;47.554;7.844;2023-04-19T08:27:17;98131.78;;;9.54;100.00
50790;BME280;37287;47.554;7.844;2023-04-19T08:29:44;98136.47;;;9.57;100.00
50790;BME280;37287;47.554;7.844;2023-04-19T08:32:12;98131.88;;;9.61;100.00
50790;BME280;37287;47.554;7.844;2023-04-19T08:34:41;98126.19;;;9.66;100.00
50790;BME280;37287;47.554;7.844;2023-04-19T08:37:13;98124.72;;;9.72;100.00
50790;BME280;37287;47.554;7.844;2023-04-19T08:39:39;98131.25;;;9.71;100.00
50790;BME280;37287;47.554;7.844;2023-04-19T08:42:08;98129.03;;;9.77;100.00
50790;BME280;37287;47.554;7.844;2023-04-19T08:44:55;98133.78;;;9.84;100.00
50790;BME280;37287;47.554;7.844;2023-04-19T08:47:45;98127.28;;;9.88;100.00
50790;BME280;37287;47.554;7.844;2023-04-19T08:50:24;98124.22;;;9.90;100.00
50790;BME280;37287;47.554;7.844;2023-04-19T08:53:09;98127.44;;;9.99;100.00
50790;BME280;37287;47.554;7.844;2023-04-19T08:55:40;98125.56;;;10.03;99.68
50790;BME280;37287;47.554;7.844;2023-04-19T08:58:31;98127.84;;;10.01;99.76
50790;BME280;37287;47.554;7.844;2023-04-19T09:01:18;98126.00;;;10.05;99.35
50790;BME280;37287;47.554;7.844;2023-04-19T09:04:01;98128.72;;;10.09;99.64
50790;BME280;37287;47.554;7.844;2023-04-19T09:06:47;98120.34;;;10.18;99.71
50790;BME280;37287;47.554;7.844;2023-04-19T09:11:47;98122.19;;;10.40;99.34
50790;BME280;37287;47.554;7.844;2023-04-19T09:14:15;98120.38;;;10.48;98.61
50790;BME280;37287;47.554;7.844;2023-04-19T09:16:43;98124.66;;;10.53;97.60
50790;BME280;37287;47.554;7.844;2023-04-19T09:19:10;98114.59;;;10.49;96.96
50790;BME280;37287;47.554;7.844;2023-04-19T09:21:51;98119.25;;;10.53;96.33
50790;BME280;37287;47.554;7.844;2023-04-19T09:24:37;98108.09;;;10.58;96.56
50790;BME280;37287;47.554;7.844;2023-04-19T09:27:29;98113.91;;;10.60;96.18
50790;BME280;37287;47.554;7.844;2023-04-19T09:30:00;98105.56;;;10.72;95.65
50790;BME280;37287;47.554;7.844;2023-04-19T09:32:46;98107.19;;;10.80;95.48
50790;BME280;37287;47.554;7.844;2023-04-19T09:35:14;98101.84;;;10.88;95.51
50790;BME280;37287;47.554;7.844;2023-04-19T09:37:41;98095.38;;;10.99;94.02
50790;BME280;37287;47.554;7.844;2023-04-19T09:40:23;98096.25;;;11.11;93.55
50790;BME280;37287;47.554;7.844;2023-04-19T09:42:50;98097.56;;;11.28;92.58
50790;BME280;37287;47.554;7.844;2023-04-19T09:45:20;98095.28;;;11.33;91.73
50790;BME280;37287;47.554;7.844;2023-04-19T09:48:01;98092.63;;;11.41;90.45
50790;BME280;37287;47.554;7.844;2023-04-19T09:50:34;98088.00;;;11.45;90.03
50790;BME280;37287;47.554;7.844;2023-04-19T09:53:20;98090.78;;;11.52;88.69
50790;BME280;37287;47.554;7.844;2023-04-19T09:55:47;98087.81;;;11.68;89.05
50790;BME280;37287;47.554;7.844;2023-04-19T09:58:28;98082.41;;;11.75;87.59
50790;BME280;37287;47.554;7.844;2023-04-19T10:01:17;98075.81;;;11.76;86.94
50790;BME280;37287;47.554;7.844;2023-04-19T10:03:48;98075.81;;;11.76;85.09
50790;BME280;37287;47.554;7.844;2023-04-19T10:06:21;98076.19;;;11.71;82.99
50790;BME280;37287;47.554;7.844;2023-04-19T10:08:53;98070.78;;;11.75;84.96
50790;BME280;37287;47.554;7.844;2023-04-19T10:11:21;98069.66;;;11.79;84.51
50790;BME280;37287;47.554;7.844;2023-04-19T10:13:56;98064.66;;;11.88;82.38
50790;BME280;37287;47.554;7.844;2023-04-19T10:16:23;98064.28;;;11.90;82.14
50790;BME280;37287;47.554;7.844;2023-04-19T10:18:51;98068.63;;;11.95;80.37
50790;BME280;37287;47.554;7.844;2023-04-19T10:21:26;98067.84;;;11.98;79.23
50790;BME280;37287;47.554;7.844;2023-04-19T10:23:57;98066.31;;;12.04;80.94
50790;BME280;37287;47.554;7.844;2023-04-19T10:26:24;98056.28;;;12.15;80.49
50790;BME280;37287;47.554;7.844;2023-04-19T10:28:53;98065.59;;;12.14;80.35
50790;BME280;37287;47.554;7.844;2023-04-19T10:31:20;98057.00;;;12.01;79.69
50790;BME280;37287;47.554;7.844;2023-04-19T10:33:49;98058.06;;;11.86;77.11
50790;BME280;37287;47.554;7.844;2023-04-19T10:36:19;98054.19;;;11.83;77.89
50790;BME280;37287;47.554;7.844;2023-04-19T10:38:50;98058.53;;;11.99;79.61
50790;BME280;37287;47.554;7.844;2023-04-19T10:41:20;98057.78;;;12.02;76.42
50790;BME280;37287;47.554;7.844;2023-04-19T10:44:08;98051.47;;;11.87;78.03
50790;BME280;37287;47.554;7.844;2023-04-19T10:46:37;98049.91;;;11.86;78.29
50790;BME280;37287;47.554;7.844;2023-04-19T10:49:09;98048.75;;;11.83;78.20
50790;BME280;37287;47.554;7.844;2023-04-19T10:51:46;98046.47;;;11.93;77.37
50790;BME280;37287;47.554;7.844;2023-04-19T10:54:32;98047.63;;;11.92;75.16
50790;BME280;37287;47.554;7.844;2023-04-19T10:57:09;98043.81;;;12.00;77.41
50790;BME280;37287;47.554;7.844;2023-04-19T10:59:37;98038.44;;;12.14;77.68
50790;BME280;37287;47.554;7.844;2023-04-19T11:07:15;98032.75;;;12.48;76.57
50790;BME280;37287;47.554;7.844;2023-04-19T11:09:46;98026.94;;;12.50;75.66
50790;BME280;37287;47.554;7.844;2023-04-19T11:12:17;98028.06;;;12.45;75.33
50790;BME280;37287;47.554;7.844;2023-04-19T11:14:56;98024.56;;;12.41;74.82
50790;BME280;37287;47.554;7.844;2023-04-19T11:17:30;98016.50;;;12.55;75.63
50790;BME280;37287;47.554;7.844;2023-04-19T11:22:33;98021.53;;;12.68;74.90
50790;BME280;37287;47.554;7.844;2023-04-19T11:25:15;98008.34;;;12.81;74.79
50790;BME280;37287;47.554;7.844;2023-04-19T11:27:49;98012.25;;;12.94;73.91
50790;BME280;37287;47.554;7.844;2023-04-19T11:30:18;98012.25;;;12.90;73.33
50790;BME280;37287;47.554;7.844;2023-04-19T11:32:50;98009.16;;;12.88;71.98
50790;BME280;37287;47.554;7.844;2023-04-19T11:35:22;97997.47;;;12.81;73.18
50790;BME280;37287;47.554;7.844;2023-04-19T11:37:54;97999.81;;;12.86;72.88
50790;BME280;37287;47.554;7.844;2023-04-19T11:40:23;97994.00;;;13.02;72.30
50790;BME280;37287;47.554;7.844;2023-04-19T11:42:56;97992.81;;;13.17;72.67
50790;BME280;37287;47.554;7.844;2023-04-19T11:45:27;97993.22;;;13.27;72.21
50790;BME280;37287;47.554;7.844;2023-04-19T11:48:05;97983.91;;;13.35;71.13
50790;BME280;37287;47.554;7.844;2023-04-19T11:50:40;97974.56;;;13.21;70.32
50790;BME280;37287;47.554;7.844;2023-04-19T11:53:15;97976.13;;;13.12;70.42
50790;BME280;37287;47.554;7.844;2023-04-19T11:58:29;97967.19;;;13.18;68.07
50790;BME280;37287;47.554;7.844;2023-04-19T12:01:21;97969.16;;;13.07;69.94
50790;BME280;37287;47.554;7.844;2023-04-19T12:03:52;97962.91;;;13.17;69.56
50790;BME280;37287;47.554;7.844;2023-04-19T12:08:54;97961.28;;;13.67;69.41
50790;BME280;37287;47.554;7.844;2023-04-19T12:11:23;97961.22;;;13.81;68.55
50790;BME280;37287;47.554;7.844;2023-04-19T12:14:08;97958.50;;;13.85;67.20
50790;BME280;37287;47.554;7.844;2023-04-19T12:16:34;97954.13;;;14.09;68.08
50790;BME280;37287;47.554;7.844;2023-04-19T12:19:13;97949.88;;;14.04;64.99
50790;BME280;37287;47.554;7.844;2023-04-19T12:21:41;97949.91;;;13.93;65.38
50790;BME280;37287;47.554;7.844;2023-04-19T12:24:08;97950.69;;;13.94;67.83
50790;BME280;37287;47.554;7.844;2023-04-19T12:26:35;97954.59;;;13.89;64.23
50790;BME280;37287;47.554;7.844;2023-04-19T12:29:02;97952.94;;;14.06;66.43
50790;BME280;37287;47.554;7.844;2023-04-19T12:31:31;97946.28;;;14.18;66.39
50790;BME280;37287;47.554;7.844;2023-04-19T12:33:59;97942.81;;;14.14;65.50
50790;BME280;37287;47.554;7.844;2023-04-19T12:36:30;97944.00;;;14.09;63.15
50790;BME280;37287;47.554;7.844;2023-04-19T12:38:56;97937.91;;;13.84;66.11
50790;BME280;37287;47.554;7.844;2023-04-19T12:41:23;97938.25;;;13.93;66.89
50790;BME280;37287;47.554;7.844;2023-04-19T12:43:51;97934.25;;;14.12;66.48
50790;BME280;37287;47.554;7.844;2023-04-19T12:46:20;97942.06;;;14.10;65.12
50790;BME280;37287;47.554;7.844;2023-04-19T12:48:47;97937.28;;;14.28;65.29
50790;BME280;37287;47.554;7.844;2023-04-19T12:51:13;97937.19;;;14.47;65.38
50790;BME280;37287;47.554;7.844;2023-04-19T12:53:49;97934.34;;;14.61;64.09
50790;BME280;37287;47.554;7.844;2023-04-19T12:56:18;97929.72;;;14.54;63.62
50790;BME280;37287;47.554;7.844;2023-04-19T12:58:44;97924.31;;;14.51;64.63
50790;BME280;37287;47.554;7.844;2023-04-19T13:01:11;97921.47;;;14.61;65.14
50790;BME280;37287;47.554;7.844;2023-04-19T13:03:40;97921.03;;;14.74;65.02
50790;BME280;37287;47.554;7.844;2023-04-19T13:06:08;97919.06;;;14.78;64.10
50790;BME280;37287;47.554;7.844;2023-04-19T13:08:34;97911.56;;;14.86;64.29
50790;BME280;37287;47.554;7.844;2023-04-19T13:11:13;97908.91;;;14.82;64.05
50790;BME280;37287;47.554;7.844;2023-04-19T13:13:43;97901.41;;;14.90;63.68
50790;BME280;37287;47.554;7.844;2023-04-19T13:16:09;97903.97;;;15.08;63.88
50790;BME280;37287;47.554;7.844;2023-04-19T13:18:38;97900.06;;;15.09;63.33
50790;BME280;37287;47.554;7.844;2023-04-19T13:21:05;97892.38;;;15.00;63.25
50790;BME280;37287;47.554;7.844;2023-04-19T13:23:34;97890.16;;;14.88;63.46
50790;BME280;37287;47.554;7.844;2023-04-19T13:26:00;97890.25;;;14.77;63.40
50790;BME280;37287;47.554;7.844;2023-04-19T13:28:27;97888.34;;;14.70;63.60
50790;BME280;37287;47.554;7.844;2023-04-19T13:30:55;97888.84;;;14.54;64.05